sensor_id;sensor_type;location;lat;lon;timestamp;P1;durP1;ratioP1;P2;durP2;ratioP2
6336;SDS011;3201;49.962;11.618;2022-10-28T00:02:10;1.77;;;1.40;;
6336;SDS011;3201;49.962;11.618;2022-10-28T00:04:36;2.93;;;1.60;;
6336;SDS011;3201;49.962;11.618;2022-10-28T00:07:01;2.63;;;1.80;;
6336;SDS011;3201;49.962;11.618;2022-10-28T00:09:26;2.37;;;1.57;;
6336;SDS011;3201;49.962;11.618;2022-10-28T00:11:52;2.23;;;1.23;;
6336;SDS011;3201;49.962;11.618;2022-10-28T00:14:17;1.50;;;1.30;;
6336;SDS011;3201;49.962;11.618;2022-10-28T00:16:42;1.73;;;1.53;;
6336;SDS011;3201;49.962;11.618;2022-10-28T00:19:09;1.73;;;1.50;;
6336;SDS011;3201;49.962;11.618;2022-10-28T00:21:36;1.43;;;1.33;;
6336;SDS011;3201;49.962;11.618;2022-10-28T00:24:02;1.70;;;1.50;;
6336;SDS011;3201;49.962;11.618;2022-10-28T00:26:29;2.07;;;1.40;;
6336;SDS011;3201;49.962;11.618;2022-10-28T00:31:25;1.50;;;1.37;;
6336;SDS011;3201;49.962;11.618;2022-10-28T00:33:51;1.47;;;1.23;;
6336;SDS011;3201;49.962;11.618;2022-10-28T00:36:19;3.20;;;1.83;;
6336;SDS011;3201;49.962;11.618;2022-10-28T00:38:47;1.40;;;1.30;;
6336;SDS011;3201;49.962;11.618;2022-10-28T00:41:17;2.50;;;1.80;;
6336;SDS011;3201;49.962;11.618;2022-10-28T00:43:45;1.67;;;1.30;;
6336;SDS011;3201;49.962;11.618;2022-10-28T00:46:16;3.27;;;1.50;;
6336;SDS011;3201;49.962;11.618;2022-10-28T00:48:44;2.80;;;1.80;;
6336;SDS011;3201;49.962;11.618;2022-10-28T00:51:12;1.80;;;1.27;;
6336;SDS011;3201;49.962;11.618;2022-10-28T00:53:38;3.10;;;2.07;;
6336;SDS011;3201;49.962;11.618;2022-10-28T00:56:04;1.97;;;1.70;;
6336;SDS011;3201;49.962;11.618;2022-10-28T00:58:30;1.63;;;1.43;;
6336;SDS011;3201;49.962;11.618;2022-10-28T01:00:56;1.87;;;1.50;;
6336;SDS011;3201;49.962;11.618;2022-10-28T01:03:21;1.70;;;1.40;;
6336;SDS011;3201;49.962;11.618;2022-10-28T01:05:47;1.43;;;1.03;;
6336;SDS011;3201;49.962;11.618;2022-10-28T01:08:13;1.93;;;1.47;;
6336;SDS011;3201;49.962;11.618;2022-10-28T01:16:22;2.80;;;1.60;;
6336;SDS011;3201;49.962;11.618;2022-10-28T01:24:22;2.90;;;1.80;;
6336;SDS011;3201;49.962;11.618;2022-10-28T01:30:02;2.00;;;1.57;;
6336;SDS011;3201;49.962;11.618;2022-10-28T01:37:34;1.67;;;1.50;;
6336;SDS011;3201;49.962;11.618;2022-10-28T01:40:10;2.10;;;1.43;;
6336;SDS011;3201;49.962;11.618;2022-10-28T01:45:36;2.03;;;1.57;;
6336;SDS011;3201;49.962;11.618;2022-10-28T01:48:08;1.80;;;1.43;;
6336;SDS011;3201;49.962;11.618;2022-10-28T01:50:38;1.90;;;1.47;;
6336;SDS011;3201;49.962;11.618;2022-10-28T01:53:09;2.10;;;1.90;;
6336;SDS011;3201;49.962;11.618;2022-10-28T01:55:38;2.43;;;1.47;;
6336;SDS011;3201;49.962;11.618;2022-10-28T01:58:07;2.20;;;1.63;;
6336;SDS011;3201;49.962;11.618;2022-10-28T02:00:33;2.00;;;1.63;;
6336;SDS011;3201;49.962;11.618;2022-10-28T02:03:00;2.03;;;1.60;;
6336;SDS011;3201;49.962;11.618;2022-10-28T02:05:42;1.77;;;1.63;;
6336;SDS011;3201;49.962;11.618;2022-10-28T02:08:14;2.40;;;1.60;;
6336;SDS011;3201;49.962;11.618;2022-10-28T02:10:51;1.93;;;1.50;;
6336;SDS011;3201;49.962;11.618;2022-10-28T02:16:17;3.13;;;1.87;;
6336;SDS011;3201;49.962;11.618;2022-10-28T02:26:38;3.00;;;1.70;;
6336;SDS011;3201;49.962;11.618;2022-10-28T02:29:08;2.70;;;1.70;;
6336;SDS011;3201;49.962;11.618;2022-10-28T02:31:42;1.83;;;1.20;;
6336;SDS011;3201;49.962;11.618;2022-10-28T02:34:13;1.57;;;1.20;;
6336;SDS011;3201;49.962;11.618;2022-10-28T02:36:43;1.30;;;1.20;;
6336;SDS011;3201;49.962;11.618;2022-10-28T02:39:10;2.40;;;1.40;;
6336;SDS011;3201;49.962;11.618;2022-10-28T02:44:15;1.80;;;1.53;;
6336;SDS011;3201;49.962;11.618;2022-10-28T02:46:43;1.70;;;1.50;;
6336;SDS011;3201;49.962;11.618;2022-10-28T02:49:11;2.07;;;1.57;;
6336;SDS011;3201;49.962;11.618;2022-10-28T02:51:42;1.93;;;1.47;;
6336;SDS011;3201;49.962;11.618;2022-10-28T02:54:11;3.83;;;1.43;;
6336;SDS011;3201;49.962;11.618;2022-10-28T02:56:40;5.80;;;1.77;;
6336;SDS011;3201;49.962;11.618;2022-10-28T02:59:09;2.33;;;1.73;;
6336;SDS011;3201;49.962;11.618;2022-10-28T03:01:36;1.40;;;1.30;;
6336;SDS011;3201;49.962;11.618;2022-10-28T03:04:01;1.80;;;1.70;;
6336;SDS011;3201;49.962;11.618;2022-10-28T03:06:27;3.17;;;1.30;;
6336;SDS011;3201;49.962;11.618;2022-10-28T03:08:52;1.43;;;1.30;;
6336;SDS011;3201;49.962;11.618;2022-10-28T03:11:18;1.40;;;1.30;;
6336;SDS011;3201;49.962;11.618;2022-10-28T03:13:44;2.87;;;1.87;;
6336;SDS011;3201;49.962;11.618;2022-10-28T03:16:09;2.63;;;1.73;;
6336;SDS011;3201;49.962;11.618;2022-10-28T03:18:34;2.03;;;1.83;;
6336;SDS011;3201;49.962;11.618;2022-10-28T03:21:00;2.40;;;1.57;;
6336;SDS011;3201;49.962;11.618;2022-10-28T03:23:25;3.43;;;1.60;;
6336;SDS011;3201;49.962;11.618;2022-10-28T03:25:50;1.80;;;1.50;;
6336;SDS011;3201;49.962;11.618;2022-10-28T03:28:16;1.20;;;1.10;;
6336;SDS011;3201;49.962;11.618;2022-10-28T03:30:41;2.13;;;1.47;;
6336;SDS011;3201;49.962;11.618;2022-10-28T03:33:06;1.53;;;1.43;;
6336;SDS011;3201;49.962;11.618;2022-10-28T03:35:32;1.27;;;1.17;;
6336;SDS011;3201;49.962;11.618;2022-10-28T03:37:57;2.70;;;1.80;;
6336;SDS011;3201;49.962;11.618;2022-10-28T03:40:23;1.23;;;1.03;;
6336;SDS011;3201;49.962;11.618;2022-10-28T03:42:48;1.60;;;1.50;;
6336;SDS011;3201;49.962;11.618;2022-10-28T03:45:13;1.63;;;1.40;;
6336;SDS011;3201;49.962;11.618;2022-10-28T03:47:39;1.70;;;1.43;;
6336;SDS011;3201;49.962;11.618;2022-10-28T03:50:05;2.00;;;1.80;;
6336;SDS011;3201;49.962;11.618;2022-10-28T03:52:30;2.10;;;1.40;;
6336;SDS011;3201;49.962;11.618;2022-10-28T03:54:56;2.70;;;1.50;;
6336;SDS011;3201;49.962;11.618;2022-10-28T03:57:21;2.00;;;1.50;;
6336;SDS011;3201;49.962;11.618;2022-10-28T03:59:46;2.93;;;1.63;;
6336;SDS011;3201;49.962;11.618;2022-10-28T04:02:12;1.53;;;1.30;;
6336;SDS011;3201;49.962;11.618;2022-10-28T04:04:39;4.30;;;1.63;;
6336;SDS011;3201;49.962;11.618;2022-10-28T04:07:05;1.50;;;1.40;;
6336;SDS011;3201;49.962;11.618;2022-10-28T04:09:30;1.53;;;1.43;;
6336;SDS011;3201;49.962;11.618;2022-10-28T04:11:56;1.83;;;1.53;;
6336;SDS011;3201;49.962;11.618;2022-10-28T04:14:21;1.77;;;1.30;;
6336;SDS011;3201;49.962;11.618;2022-10-28T04:16:46;2.20;;;1.47;;
6336;SDS011;3201;49.962;11.618;2022-10-28T04:19:12;1.27;;;1.17;;
6336;SDS011;3201;49.962;11.618;2022-10-28T04:21:37;1.60;;;1.50;;
6336;SDS011;3201;49.962;11.618;2022-10-28T04:24:03;1.47;;;1.27;;
6336;SDS011;3201;49.962;11.618;2022-10-28T04:26:28;1.10;;;1.00;;
6336;SDS011;3201;49.962;11.618;2022-10-28T04:28:55;3.50;;;1.87;;
6336;SDS011;3201;49.962;11.618;2022-10-28T04:31:21;2.30;;;1.70;;
6336;SDS011;3201;49.962;11.618;2022-10-28T04:33:46;2.33;;;1.73;;
6336;SDS011;3201;49.962;11.618;2022-10-28T04:36:12;1.70;;;1.60;;
6336;SDS011;3201;49.962;11.618;2022-10-28T04:38:37;2.10;;;1.43;;
6336;SDS011;3201;49.962;11.618;2022-10-28T04:41:02;1.53;;;1.40;;
6336;SDS011;3201;49.962;11.618;2022-10-28T04:43:28;2.43;;;1.20;;
6336;SDS011;3201;49.962;11.618;2022-10-28T04:45:53;2.00;;;1.60;;
6336;SDS011;3201;49.962;11.618;2022-10-28T04:48:19;2.47;;;1.60;;
6336;SDS011;3201;49.962;11.618;2022-10-28T04:50:44;2.93;;;2.03;;
6336;SDS011;3201;49.962;11.618;2022-10-28T04:53:10;1.30;;;1.20;;
6336;SDS011;3201;49.962;11.618;2022-10-28T04:55:36;1.90;;;1.43;;
6336;SDS011;3201;49.962;11.618;2022-10-28T04:58:01;1.47;;;1.30;;
6336;SDS011;3201;49.962;11.618;2022-10-28T05:00:28;3.80;;;1.63;;
6336;SDS011;3201;49.962;11.618;2022-10-28T05:02:54;1.53;;;1.43;;
6336;SDS011;3201;49.962;11.618;2022-10-28T05:05:19;1.83;;;1.70;;
6336;SDS011;3201;49.962;11.618;2022-10-28T05:07:45;2.00;;;1.60;;
6336;SDS011;3201;49.962;11.618;2022-10-28T05:10:10;1.50;;;1.40;;
6336;SDS011;3201;49.962;11.618;2022-10-28T05:12:40;1.20;;;1.10;;
6336;SDS011;3201;49.962;11.618;2022-10-28T05:15:07;1.23;;;1.13;;
6336;SDS011;3201;49.962;11.618;2022-10-28T05:17:33;1.77;;;1.40;;
6336;SDS011;3201;49.962;11.618;2022-10-28T05:19:58;2.77;;;1.60;;
6336;SDS011;3201;49.962;11.618;2022-10-28T05:22:24;2.60;;;1.53;;
6336;SDS011;3201;49.962;11.618;2022-10-28T05:24:49;1.63;;;1.53;;
6336;SDS011;3201;49.962;11.618;2022-10-28T05:27:15;1.87;;;1.33;;
6336;SDS011;3201;49.962;11.618;2022-10-28T05:29:40;1.77;;;1.40;;
6336;SDS011;3201;49.962;11.618;2022-10-28T05:32:05;1.40;;;1.20;;
6336;SDS011;3201;49.962;11.618;2022-10-28T05:34:31;1.50;;;1.23;;
6336;SDS011;3201;49.962;11.618;2022-10-28T05:36:56;2.30;;;1.20;;
6336;SDS011;3201;49.962;11.618;2022-10-28T05:39:22;2.17;;;1.63;;
6336;SDS011;3201;49.962;11.618;2022-10-28T05:41:47;1.57;;;0.87;;
6336;SDS011;3201;49.962;11.618;2022-10-28T05:44:12;2.23;;;1.60;;
6336;SDS011;3201;49.962;11.618;2022-10-28T05:46:38;1.30;;;1.20;;
6336;SDS011;3201;49.962;11.618;2022-10-28T05:49:03;2.37;;;1.03;;
6336;SDS011;3201;49.962;11.618;2022-10-28T05:51:28;1.47;;;1.37;;
6336;SDS011;3201;49.962;11.618;2022-10-28T05:53:54;1.67;;;1.30;;
6336;SDS011;3201;49.962;11.618;2022-10-28T05:56:19;1.33;;;1.13;;
6336;SDS011;3201;49.962;11.618;2022-10-28T05:58:44;1.40;;;1.23;;
6336;SDS011;3201;49.962;11.618;2022-10-28T06:01:11;2.53;;;1.70;;
6336;SDS011;3201;49.962;11.618;2022-10-28T06:03:36;1.80;;;1.30;;
6336;SDS011;3201;49.962;11.618;2022-10-28T06:06:02;1.33;;;1.23;;
6336;SDS011;3201;49.962;11.618;2022-10-28T06:08:27;1.83;;;1.50;;
6336;SDS011;3201;49.962;11.618;2022-10-28T06:10:53;2.07;;;1.57;;
6336;SDS011;3201;49.962;11.618;2022-10-28T06:13:19;2.13;;;1.93;;
6336;SDS011;3201;49.962;11.618;2022-10-28T06:15:52;2.63;;;1.63;;
6336;SDS011;3201;49.962;11.618;2022-10-28T06:18:20;2.50;;;1.80;;
6336;SDS011;3201;49.962;11.618;2022-10-28T06:20:53;1.60;;;1.47;;
6336;SDS011;3201;49.962;11.618;2022-10-28T06:23:20;2.63;;;1.73;;
6336;SDS011;3201;49.962;11.618;2022-10-28T06:25:46;1.20;;;1.10;;
6336;SDS011;3201;49.962;11.618;2022-10-28T06:28:11;2.37;;;1.47;;
6336;SDS011;3201;49.962;11.618;2022-10-28T06:30:37;1.50;;;1.40;;
6336;SDS011;3201;49.962;11.618;2022-10-28T06:33:02;1.60;;;1.50;;
6336;SDS011;3201;49.962;11.618;2022-10-28T06:35:28;1.93;;;1.60;;
6336;SDS011;3201;49.962;11.618;2022-10-28T06:37:53;1.73;;;1.50;;
6336;SDS011;3201;49.962;11.618;2022-10-28T06:40:20;1.30;;;1.20;;
6336;SDS011;3201;49.962;11.618;2022-10-28T06:42:46;1.73;;;1.53;;
6336;SDS011;3201;49.962;11.618;2022-10-28T06:45:11;1.90;;;1.70;;
6336;SDS011;3201;49.962;11.618;2022-10-28T06:47:37;3.00;;;1.87;;
6336;SDS011;3201;49.962;11.618;2022-10-28T06:50:02;2.03;;;1.80;;
6336;SDS011;3201;49.962;11.618;2022-10-28T06:52:28;2.00;;;1.60;;
6336;SDS011;3201;49.962;11.618;2022-10-28T06:54:53;1.83;;;1.67;;
6336;SDS011;3201;49.962;11.618;2022-10-28T06:57:18;3.93;;;1.67;;
6336;SDS011;3201;49.962;11.618;2022-10-28T06:59:43;3.73;;;1.50;;
6336;SDS011;3201;49.962;11.618;2022-10-28T07:02:10;2.30;;;1.90;;
6336;SDS011;3201;49.962;11.618;2022-10-28T07:04:35;2.37;;;2.17;;
6336;SDS011;3201;49.962;11.618;2022-10-28T07:07:01;2.13;;;1.93;;
6336;SDS011;3201;49.962;11.618;2022-10-28T07:09:27;3.10;;;1.60;;
6336;SDS011;3201;49.962;11.618;2022-10-28T07:11:52;1.60;;;1.50;;
6336;SDS011;3201;49.962;11.618;2022-10-28T07:14:17;2.90;;;1.73;;
6336;SDS011;3201;49.962;11.618;2022-10-28T07:16:43;2.10;;;1.57;;
6336;SDS011;3201;49.962;11.618;2022-10-28T07:19:08;1.90;;;1.57;;
6336;SDS011;3201;49.962;11.618;2022-10-28T07:21:34;3.80;;;1.40;;
6336;SDS011;3201;49.962;11.618;2022-10-28T07:23:59;2.10;;;1.90;;
6336;SDS011;3201;49.962;11.618;2022-10-28T07:26:25;2.50;;;2.03;;
6336;SDS011;3201;49.962;11.618;2022-10-28T07:28:50;1.50;;;1.40;;
6336;SDS011;3201;49.962;11.618;2022-10-28T07:31:16;1.80;;;1.70;;
6336;SDS011;3201;49.962;11.618;2022-10-28T07:33:42;1.90;;;1.70;;
6336;SDS011;3201;49.962;11.618;2022-10-28T07:36:08;1.77;;;1.50;;
6336;SDS011;3201;49.962;11.618;2022-10-28T07:38:34;2.07;;;1.60;;
6336;SDS011;3201;49.962;11.618;2022-10-28T07:41:03;1.80;;;1.50;;
6336;SDS011;3201;49.962;11.618;2022-10-28T07:43:29;1.67;;;1.53;;
6336;SDS011;3201;49.962;11.618;2022-10-28T07:45:55;2.37;;;1.50;;
6336;SDS011;3201;49.962;11.618;2022-10-28T07:48:21;3.87;;;2.67;;
6336;SDS011;3201;49.962;11.618;2022-10-28T07:50:46;2.43;;;2.00;;
6336;SDS011;3201;49.962;11.618;2022-10-28T07:53:12;2.70;;;1.70;;
6336;SDS011;3201;49.962;11.618;2022-10-28T07:55:37;12.43;;;2.40;;
6336;SDS011;3201;49.962;11.618;2022-10-28T07:58:02;1.83;;;1.60;;
6336;SDS011;3201;49.962;11.618;2022-10-28T08:00:28;3.10;;;2.00;;
6336;SDS011;3201;49.962;11.618;2022-10-28T08:02:53;4.07;;;2.43;;
6336;SDS011;3201;49.962;11.618;2022-10-28T08:05:19;2.43;;;2.10;;
6336;SDS011;3201;49.962;11.618;2022-10-28T08:07:44;4.73;;;2.20;;
6336;SDS011;3201;49.962;11.618;2022-10-28T08:10:11;4.03;;;2.10;;
6336;SDS011;3201;49.962;11.618;2022-10-28T08:12:36;3.73;;;1.97;;
6336;SDS011;3201;49.962;11.618;2022-10-28T08:15:02;1.90;;;1.70;;
6336;SDS011;3201;49.962;11.618;2022-10-28T08:17:28;3.83;;;1.83;;
6336;SDS011;3201;49.962;11.618;2022-10-28T08:19:54;3.87;;;2.00;;
6336;SDS011;3201;49.962;11.618;2022-10-28T08:22:19;1.83;;;1.73;;
6336;SDS011;3201;49.962;11.618;2022-10-28T08:24:44;2.03;;;1.53;;
6336;SDS011;3201;49.962;11.618;2022-10-28T08:27:10;2.67;;;1.90;;
6336;SDS011;3201;49.962;11.618;2022-10-28T08:29:35;6.73;;;1.90;;
6336;SDS011;3201;49.962;11.618;2022-10-28T08:32:01;4.03;;;2.17;;
6336;SDS011;3201;49.962;11.618;2022-10-28T08:34:26;2.10;;;1.77;;
6336;SDS011;3201;49.962;11.618;2022-10-28T08:36:54;5.80;;;2.37;;
6336;SDS011;3201;49.962;11.618;2022-10-28T08:39:20;2.10;;;1.80;;
6336;SDS011;3201;49.962;11.618;2022-10-28T08:41:49;5.90;;;1.90;;
6336;SDS011;3201;49.962;11.618;2022-10-28T08:48:10;1.90;;;1.50;;
6336;SDS011;3201;49.962;11.618;2022-10-28T08:49:51;3.27;;;1.80;;
6336;SDS011;3201;49.962;11.618;2022-10-28T08:54:52;3.90;;;1.87;;
6336;SDS011;3201;49.962;11.618;2022-10-28T08:57:26;5.90;;;1.87;;
6336;SDS011;3201;49.962;11.618;2022-10-28T08:59:56;1.67;;;1.57;;
6336;SDS011;3201;49.962;11.618;2022-10-28T09:02:25;1.83;;;1.50;;
6336;SDS011;3201;49.962;11.618;2022-10-28T09:05:25;1.53;;;1.40;;
6336;SDS011;3201;49.962;11.618;2022-10-28T09:07:39;2.20;;;1.83;;
6336;SDS011;3201;49.962;11.618;2022-10-28T09:10:05;4.90;;;1.90;;
6336;SDS011;3201;49.962;11.618;2022-10-28T09:12:37;1.57;;;1.47;;
6336;SDS011;3201;49.962;11.618;2022-10-28T09:21:14;2.27;;;1.93;;
6336;SDS011;3201;49.962;11.618;2022-10-28T09:23:46;1.70;;;1.60;;
6336;SDS011;3201;49.962;11.618;2022-10-28T09:26:30;1.90;;;1.50;;
6336;SDS011;3201;49.962;11.618;2022-10-28T09:34:20;2.33;;;1.30;;
6336;SDS011;3201;49.962;11.618;2022-10-28T09:36:54;1.77;;;1.60;;
6336;SDS011;3201;49.962;11.618;2022-10-28T09:39:31;1.60;;;1.40;;
6336;SDS011;3201;49.962;11.618;2022-10-28T09:41:59;2.80;;;1.67;;
6336;SDS011;3201;49.962;11.618;2022-10-28T09:46:59;2.80;;;2.20;;
6336;SDS011;3201;49.962;11.618;2022-10-28T09:49:27;5.93;;;1.97;;
6336;SDS011;3201;49.962;11.618;2022-10-28T09:52:00;1.80;;;1.63;;
6336;SDS011;3201;49.962;11.618;2022-10-28T09:54:32;3.33;;;1.90;;
6336;SDS011;3201;49.962;11.618;2022-10-28T09:56:59;3.17;;;2.10;;
6336;SDS011;3201;49.962;11.618;2022-10-28T09:59:25;2.27;;;1.53;;
6336;SDS011;3201;49.962;11.618;2022-10-28T10:01:51;1.77;;;1.60;;
6336;SDS011;3201;49.962;11.618;2022-10-28T10:04:18;2.83;;;2.00;;
6336;SDS011;3201;49.962;11.618;2022-10-28T10:06:46;2.70;;;1.97;;
6336;SDS011;3201;49.962;11.618;2022-10-28T10:09:17;4.53;;;1.90;;
6336;SDS011;3201;49.962;11.618;2022-10-28T10:11:45;1.70;;;1.60;;
6336;SDS011;3201;49.962;11.618;2022-10-28T10:14:15;2.27;;;2.03;;
6336;SDS011;3201;49.962;11.618;2022-10-28T10:19:11;3.60;;;1.90;;
6336;SDS011;3201;49.962;11.618;2022-10-28T10:21:39;3.50;;;2.00;;
6336;SDS011;3201;49.962;11.618;2022-10-28T10:24:38;2.40;;;2.20;;
6336;SDS011;3201;49.962;11.618;2022-10-28T10:26:55;2.63;;;1.57;;
6336;SDS011;3201;49.962;11.618;2022-10-28T10:29:22;1.67;;;1.43;;
6336;SDS011;3201;49.962;11.618;2022-10-28T10:31:48;3.67;;;1.80;;
6336;SDS011;3201;49.962;11.618;2022-10-28T10:34:28;2.50;;;1.77;;
6336;SDS011;3201;49.962;11.618;2022-10-28T10:36:54;1.30;;;1.20;;
6336;SDS011;3201;49.962;11.618;2022-10-28T10:39:20;5.00;;;2.03;;
6336;SDS011;3201;49.962;11.618;2022-10-28T10:41:50;4.43;;;1.57;;
6336;SDS011;3201;49.962;11.618;2022-10-28T10:49:30;2.77;;;1.80;;
6336;SDS011;3201;49.962;11.618;2022-10-28T10:51:56;2.60;;;1.17;;
6336;SDS011;3201;49.962;11.618;2022-10-28T10:54:24;1.90;;;1.60;;
6336;SDS011;3201;49.962;11.618;2022-10-28T10:56:50;2.00;;;1.40;;
6336;SDS011;3201;49.962;11.618;2022-10-28T10:59:22;2.90;;;1.80;;
6336;SDS011;3201;49.962;11.618;2022-10-28T11:01:50;4.20;;;2.03;;
6336;SDS011;3201;49.962;11.618;2022-10-28T11:04:17;2.50;;;1.60;;
6336;SDS011;3201;49.962;11.618;2022-10-28T11:06:47;1.77;;;1.50;;
6336;SDS011;3201;49.962;11.618;2022-10-28T11:09:30;3.13;;;1.67;;
6336;SDS011;3201;49.962;11.618;2022-10-28T11:11:59;2.33;;;1.80;;
6336;SDS011;3201;49.962;11.618;2022-10-28T11:14:26;3.03;;;2.17;;
6336;SDS011;3201;49.962;11.618;2022-10-28T11:16:55;3.43;;;2.20;;
6336;SDS011;3201;49.962;11.618;2022-10-28T11:19:22;2.27;;;1.60;;
6336;SDS011;3201;49.962;11.618;2022-10-28T11:22:32;3.87;;;1.80;;
6336;SDS011;3201;49.962;11.618;2022-10-28T11:33:20;2.73;;;1.77;;
6336;SDS011;3201;49.962;11.618;2022-10-28T11:35:55;3.10;;;2.10;;
6336;SDS011;3201;49.962;11.618;2022-10-28T11:38:44;4.37;;;1.93;;
6336;SDS011;3201;49.962;11.618;2022-10-28T11:41:24;2.47;;;1.53;;
6336;SDS011;3201;49.962;11.618;2022-10-28T11:43:54;3.00;;;1.57;;
6336;SDS011;3201;49.962;11.618;2022-10-28T11:46:28;2.03;;;1.57;;
6336;SDS011;3201;49.962;11.618;2022-10-28T11:55:35;5.33;;;1.70;;
6336;SDS011;3201;49.962;11.618;2022-10-28T11:57:23;5.40;;;2.27;;
6336;SDS011;3201;49.962;11.618;2022-10-28T11:59:57;4.40;;;1.63;;
6336;SDS011;3201;49.962;11.618;2022-10-28T12:02:36;4.10;;;1.90;;
6336;SDS011;3201;49.962;11.618;2022-10-28T12:05:32;4.30;;;1.40;;
6336;SDS011;3201;49.962;11.618;2022-10-28T12:10:54;3.50;;;1.80;;
6336;SDS011;3201;49.962;11.618;2022-10-28T12:13:45;4.63;;;2.33;;
6336;SDS011;3201;49.962;11.618;2022-10-28T12:16:32;4.53;;;1.97;;
6336;SDS011;3201;49.962;11.618;2022-10-28T12:24:23;3.03;;;1.40;;
6336;SDS011;3201;49.962;11.618;2022-10-28T12:26:50;8.73;;;1.70;;
6336;SDS011;3201;49.962;11.618;2022-10-28T12:29:19;5.80;;;1.63;;
6336;SDS011;3201;49.962;11.618;2022-10-28T12:31:49;6.50;;;1.73;;
6336;SDS011;3201;49.962;11.618;2022-10-28T12:34:19;3.50;;;1.53;;
6336;SDS011;3201;49.962;11.618;2022-10-28T12:36:57;2.37;;;1.57;;
6336;SDS011;3201;49.962;11.618;2022-10-28T12:39:30;2.77;;;1.73;;
6336;SDS011;3201;49.962;11.618;2022-10-28T12:44:29;2.60;;;1.70;;
6336;SDS011;3201;49.962;11.618;2022-10-28T12:55:25;8.27;;;3.60;;
6336;SDS011;3201;49.962;11.618;2022-10-28T12:58:00;6.80;;;3.37;;
6336;SDS011;3201;49.962;11.618;2022-10-28T13:00:30;14.43;;;3.47;;
6336;SDS011;3201;49.962;11.618;2022-10-28T13:03:00;5.33;;;2.80;;
6336;SDS011;3201;49.962;11.618;2022-10-28T13:05:30;7.63;;;3.53;;
6336;SDS011;3201;49.962;11.618;2022-10-28T13:11:24;8.57;;;3.53;;
6336;SDS011;3201;49.962;11.618;2022-10-28T13:14:14;4.93;;;3.73;;
6336;SDS011;3201;49.962;11.618;2022-10-28T13:16:56;9.20;;;4.50;;
6336;SDS011;3201;49.962;11.618;2022-10-28T13:24:50;5.87;;;4.63;;
6336;SDS011;3201;49.962;11.618;2022-10-28T13:27:20;8.80;;;3.70;;
6336;SDS011;3201;49.962;11.618;2022-10-28T13:29:48;4.73;;;3.40;;
6336;SDS011;3201;49.962;11.618;2022-10-28T13:32:48;7.93;;;3.53;;
6336;SDS011;3201;49.962;11.618;2022-10-28T13:35:09;4.37;;;2.93;;
6336;SDS011;3201;49.962;11.618;2022-10-28T13:37:36;5.00;;;3.10;;
6336;SDS011;3201;49.962;11.618;2022-10-28T13:40:03;5.43;;;3.87;;
6336;SDS011;3201;49.962;11.618;2022-10-28T13:42:29;9.43;;;3.53;;
6336;SDS011;3201;49.962;11.618;2022-10-28T13:45:02;12.47;;;3.50;;
6336;SDS011;3201;49.962;11.618;2022-10-28T13:47:30;7.60;;;3.20;;
6336;SDS011;3201;49.962;11.618;2022-10-28T13:50:12;5.83;;;3.77;;
6336;SDS011;3201;49.962;11.618;2022-10-28T13:52:43;4.00;;;3.60;;
6336;SDS011;3201;49.962;11.618;2022-10-28T13:55:18;11.53;;;4.07;;
6336;SDS011;3201;49.962;11.618;2022-10-28T13:57:49;10.87;;;3.43;;
6336;SDS011;3201;49.962;11.618;2022-10-28T14:02:46;9.60;;;3.40;;
6336;SDS011;3201;49.962;11.618;2022-10-28T14:05:24;7.10;;;3.50;;
6336;SDS011;3201;49.962;11.618;2022-10-28T14:08:18;11.43;;;3.40;;
6336;SDS011;3201;49.962;11.618;2022-10-28T14:11:22;4.50;;;3.17;;
6336;SDS011;3201;49.962;11.618;2022-10-28T14:13:34;7.33;;;2.90;;
6336;SDS011;3201;49.962;11.618;2022-10-28T14:16:12;6.70;;;3.00;;
6336;SDS011;3201;49.962;11.618;2022-10-28T14:18:39;11.03;;;4.57;;
6336;SDS011;3201;49.962;11.618;2022-10-28T14:21:05;9.50;;;5.40;;
6336;SDS011;3201;49.962;11.618;2022-10-28T14:26:01;8.90;;;5.53;;
6336;SDS011;3201;49.962;11.618;2022-10-28T14:36:29;7.00;;;5.60;;
6336;SDS011;3201;49.962;11.618;2022-10-28T14:49:54;7.80;;;4.67;;
6336;SDS011;3201;49.962;11.618;2022-10-28T14:52:22;8.63;;;5.70;;
6336;SDS011;3201;49.962;11.618;2022-10-28T14:54:49;15.60;;;6.10;;
6336;SDS011;3201;49.962;11.618;2022-10-28T14:57:16;9.50;;;5.53;;
6336;SDS011;3201;49.962;11.618;2022-10-28T14:59:46;9.30;;;5.47;;
6336;SDS011;3201;49.962;11.618;2022-10-28T15:02:15;16.70;;;5.50;;
6336;SDS011;3201;49.962;11.618;2022-10-28T15:04:45;18.93;;;5.53;;
6336;SDS011;3201;49.962;11.618;2022-10-28T15:07:12;17.63;;;5.83;;
6336;SDS011;3201;49.962;11.618;2022-10-28T15:09:39;9.97;;;5.27;;
6336;SDS011;3201;49.962;11.618;2022-10-28T15:12:08;10.97;;;6.10;;
6336;SDS011;3201;49.962;11.618;2022-10-28T15:14:36;14.47;;;5.77;;
6336;SDS011;3201;49.962;11.618;2022-10-28T15:17:12;13.03;;;6.13;;
6336;SDS011;3201;49.962;11.618;2022-10-28T15:19:40;8.03;;;5.13;;
6336;SDS011;3201;49.962;11.618;2022-10-28T15:22:22;8.80;;;4.93;;
6336;SDS011;3201;49.962;11.618;2022-10-28T15:24:53;11.40;;;5.83;;
6336;SDS011;3201;49.962;11.618;2022-10-28T15:27:20;14.53;;;5.37;;
6336;SDS011;3201;49.962;11.618;2022-10-28T15:29:46;8.73;;;5.40;;
6336;SDS011;3201;49.962;11.618;2022-10-28T15:32:22;19.73;;;5.40;;
6336;SDS011;3201;49.962;11.618;2022-10-28T15:34:49;7.33;;;4.40;;
6336;SDS011;3201;49.962;11.618;2022-10-28T15:37:15;12.83;;;5.57;;
6336;SDS011;3201;49.962;11.618;2022-10-28T15:39:42;12.70;;;5.10;;
6336;SDS011;3201;49.962;11.618;2022-10-28T15:44:53;6.50;;;4.17;;
6336;SDS011;3201;49.962;11.618;2022-10-28T15:47:26;10.13;;;4.90;;
6336;SDS011;3201;49.962;11.618;2022-10-28T15:49:56;8.83;;;4.83;;
6336;SDS011;3201;49.962;11.618;2022-10-28T15:52:33;6.50;;;4.60;;
6336;SDS011;3201;49.962;11.618;2022-10-28T15:55:01;7.50;;;4.80;;
6336;SDS011;3201;49.962;11.618;2022-10-28T15:57:46;8.10;;;4.80;;
6336;SDS011;3201;49.962;11.618;2022-10-28T16:00:17;8.90;;;4.53;;
6336;SDS011;3201;49.962;11.618;2022-10-28T16:02:48;8.23;;;4.63;;
6336;SDS011;3201;49.962;11.618;2022-10-28T16:08:04;7.13;;;4.10;;
6336;SDS011;3201;49.962;11.618;2022-10-28T16:10:33;11.57;;;4.70;;
6336;SDS011;3201;49.962;11.618;2022-10-28T16:13:02;10.97;;;4.80;;
6336;SDS011;3201;49.962;11.618;2022-10-28T16:15:29;6.23;;;4.47;;
6336;SDS011;3201;49.962;11.618;2022-10-28T16:17:54;7.90;;;4.80;;
6336;SDS011;3201;49.962;11.618;2022-10-28T16:20:20;6.63;;;4.00;;
6336;SDS011;3201;49.962;11.618;2022-10-28T16:22:48;7.13;;;4.03;;
6336;SDS011;3201;49.962;11.618;2022-10-28T16:25:16;9.80;;;4.23;;
6336;SDS011;3201;49.962;11.618;2022-10-28T16:27:44;6.60;;;4.33;;
6336;SDS011;3201;49.962;11.618;2022-10-28T16:30:09;4.90;;;4.20;;
6336;SDS011;3201;49.962;11.618;2022-10-28T16:32:36;7.23;;;3.60;;
6336;SDS011;3201;49.962;11.618;2022-10-28T16:35:04;9.03;;;4.73;;
6336;SDS011;3201;49.962;11.618;2022-10-28T16:37:38;6.00;;;4.27;;
6336;SDS011;3201;49.962;11.618;2022-10-28T16:40:04;4.57;;;4.07;;
6336;SDS011;3201;49.962;11.618;2022-10-28T16:42:30;5.20;;;3.40;;
6336;SDS011;3201;49.962;11.618;2022-10-28T16:44:55;6.43;;;4.10;;
6336;SDS011;3201;49.962;11.618;2022-10-28T16:47:21;6.97;;;3.73;;
6336;SDS011;3201;49.962;11.618;2022-10-28T16:49:50;8.40;;;3.97;;
6336;SDS011;3201;49.962;11.618;2022-10-28T16:52:18;6.47;;;4.47;;
6336;SDS011;3201;49.962;11.618;2022-10-28T16:54:45;5.50;;;4.40;;
6336;SDS011;3201;49.962;11.618;2022-10-28T16:57:10;5.70;;;4.53;;
6336;SDS011;3201;49.962;11.618;2022-10-28T16:59:36;6.23;;;3.90;;
6336;SDS011;3201;49.962;11.618;2022-10-28T17:02:01;6.33;;;3.43;;
6336;SDS011;3201;49.962;11.618;2022-10-28T17:04:27;5.67;;;3.87;;
6336;SDS011;3201;49.962;11.618;2022-10-28T17:06:53;7.57;;;4.43;;
6336;SDS011;3201;49.962;11.618;2022-10-28T17:09:19;9.30;;;4.90;;
6336;SDS011;3201;49.962;11.618;2022-10-28T17:11:44;4.70;;;3.30;;
6336;SDS011;3201;49.962;11.618;2022-10-28T17:14:10;4.23;;;3.60;;
6336;SDS011;3201;49.962;11.618;2022-10-28T17:16:35;6.77;;;3.40;;
6336;SDS011;3201;49.962;11.618;2022-10-28T17:19:01;5.83;;;3.50;;
6336;SDS011;3201;49.962;11.618;2022-10-28T17:21:26;4.17;;;3.43;;
6336;SDS011;3201;49.962;11.618;2022-10-28T17:23:51;10.53;;;3.50;;
6336;SDS011;3201;49.962;11.618;2022-10-28T17:26:17;4.80;;;4.10;;